地図

経路データ

SID SEASON NUMBER BASIN SUBBASIN NAME ISO_TIME NATURE LAT LON WMO_WIND WMO_PRES WMO_AGENCY TRACK_TYPE DIST2LAND LANDFALL IFLAG USA_AGENCY USA_ATCF_ID USA_LAT USA_LON USA_RECORD USA_STATUS USA_WIND USA_PRES USA_SSHS USA_R34_NE USA_R34_SE USA_R34_SW USA_R34_NW USA_R50_NE USA_R50_SE USA_R50_SW USA_R50_NW USA_R64_NE USA_R64_SE USA_R64_SW USA_R64_NW USA_POCI USA_ROCI USA_RMW USA_EYE TOKYO_LAT TOKYO_LON TOKYO_GRADE TOKYO_WIND TOKYO_PRES TOKYO_R50_DIR TOKYO_R50_LONG TOKYO_R50_SHORT TOKYO_R30_DIR TOKYO_R30_LONG TOKYO_R30_SHORT TOKYO_LAND CMA_LAT CMA_LON CMA_CAT CMA_WIND CMA_PRES HKO_LAT HKO_LON HKO_CAT HKO_WIND HKO_PRES NEWDELHI_LAT NEWDELHI_LON NEWDELHI_GRADE NEWDELHI_WIND NEWDELHI_PRES NEWDELHI_CI NEWDELHI_DP NEWDELHI_POCI REUNION_LAT REUNION_LON REUNION_TYPE REUNION_WIND REUNION_PRES REUNION_TNUM REUNION_CI REUNION_RMW REUNION_R34_NE REUNION_R34_SE REUNION_R34_SW REUNION_R34_NW REUNION_R50_NE REUNION_R50_SE REUNION_R50_SW REUNION_R50_NW REUNION_R64_NE REUNION_R64_SE REUNION_R64_SW REUNION_R64_NW BOM_LAT BOM_LON BOM_TYPE BOM_WIND BOM_PRES BOM_TNUM BOM_CI BOM_RMW BOM_R34_NE BOM_R34_SE BOM_R34_SW BOM_R34_NW BOM_R50_NE BOM_R50_SE BOM_R50_SW BOM_R50_NW BOM_R64_NE BOM_R64_SE BOM_R64_SW BOM_R64_NW BOM_ROCI BOM_POCI BOM_EYE BOM_POS_METHOD BOM_PRES_METHOD NADI_LAT NADI_LON NADI_CAT NADI_WIND NADI_PRES WELLINGTON_LAT WELLINGTON_LON WELLINGTON_WIND WELLINGTON_PRES DS824_LAT DS824_LON DS824_STAGE DS824_WIND DS824_PRES TD9636_LAT TD9636_LON TD9636_STAGE TD9636_WIND TD9636_PRES TD9635_LAT TD9635_LON TD9635_WIND TD9635_PRES TD9635_ROCI NEUMANN_LAT NEUMANN_LON NEUMANN_CLASS NEUMANN_WIND NEUMANN_PRES MLC_LAT MLC_LON MLC_CLASS MLC_WIND MLC_PRES USA_GUST BOM_GUST BOM_GUST_PER REUNION_GUST REUNION_GUST_PER USA_SEAHGT USA_SEARAD_NE USA_SEARAD_SE USA_SEARAD_SW USA_SEARAD_NW STORM_SPEED STORM_DIR
2010286N18090 2010 71 NI BB NOT_NAMED 2010-10-13 06:00:00 NR 17.5000 90.0000 25 1002 newdelhi main 421 421 ____O_________ -1 17.5000 90.0000 D 25 1002 1.50000 4 10 263
2010286N18090 2010 71 NI BB NOT_NAMED 2010-10-13 09:00:00 NR 17.4379 89.4622 main 437 391 ____P_________ -1 17.4379 89.4622 D 25 1000 4 10 270
2010286N18090 2010 71 NI BB NOT_NAMED 2010-10-13 12:00:00 NR 17.5000 89.0000 25 998 newdelhi main 391 353 ____O_________ -1 17.5000 89.0000 D 25 998 1.50000 4 8 293
2010286N18090 2010 71 NI BB NOT_NAMED 2010-10-13 15:00:00 NR 17.7499 88.6752 main 353 314 ____P_________ -1 17.7499 88.6752 D 25 998 4 7 316
2010286N18090 2010 71 NI BB NOT_NAMED 2010-10-13 18:00:00 NR 18.0000 88.5000 25 998 newdelhi main 314 314 ____O_________ -1 18.0000 88.5000 D 25 998 1.50000 4 3 325
2010286N18090 2010 71 NI BB NOT_NAMED 2010-10-13 21:00:00 NR 18.0340 88.4658 main 314 314 ____P_________ -1 18.0340 88.4658 D 25 998 4 0 0
2010286N18090 2010 71 NI BB NOT_NAMED 2010-10-14 00:00:00 NR 18.0000 88.5000 25 998 newdelhi main 314 314 ____O_________ -1 18.0000 88.5000 D 25 998 1.50000 4 0 127
2010286N18090 2010 71 NI BB NOT_NAMED 2010-10-14 03:00:00 NR 18.0000 88.5000 25 998 newdelhi main 314 314 ____O_________ -1 18.0000 88.5000 D 25 998 1.50000 4 0 0
2010286N18090 2010 71 NI BB NOT_NAMED 2010-10-14 06:00:00 NR 18.0000 88.5000 25 998 newdelhi main 314 299 ____O_________ -1 18.0000 88.5000 D 25 998 1.50000 4 2 270
2010286N18090 2010 71 NI BB NOT_NAMED 2010-10-14 09:00:00 NR 18.0002 88.2670 main 299 279 ____P_________ -1 18.0002 88.2670 D 25 997 4 5 270
2010286N18090 2010 71 NI BB NOT_NAMED 2010-10-14 12:00:00 NR 18.0000 88.0000 25 996 newdelhi main 279 279 ____O_________ -1 18.0000 88.0000 D 25 996 1.50000 4 3 262
2010286N18090 2010 71 NI BB NOT_NAMED 2010-10-14 15:00:00 NR 17.9624 87.9999 main 279 279 ____P_________ -1 17.9624 87.9999 D 25 996 4 0 0
2010286N18090 2010 71 NI BB NOT_NAMED 2010-10-14 18:00:00 NR 18.0000 88.0000 25 996 newdelhi main 279 249 ____O_________ -1 18.0000 88.0000 D 25 996 1.50000 4 3 322
2010286N18090 2010 71 NI BB NOT_NAMED 2010-10-14 21:00:00 NR 18.1647 87.8349 main 249 203 ____P_________ -1 18.1647 87.8349 D 25 996 4 7 316
2010286N18090 2010 71 NI BB NOT_NAMED 2010-10-15 00:00:00 NR 18.5000 87.5000 25 996 newdelhi main 203 128 ____O_________ -1 18.5000 87.5000 D 25 996 1.50000 4 12 317
2010286N18090 2010 71 NI BB NOT_NAMED 2010-10-15 03:00:00 NR 19.0000 87.0000 30 996 newdelhi main 128 39 ____O_________ -1 19.0000 87.0000 DD 30 996 2.00000 5 17 305
2010286N18090 2010 71 NI BB NOT_NAMED 2010-10-15 06:00:00 NR 19.5000 86.0000 30 996 newdelhi main 39 15 ____O_________ -1 19.5000 86.0000 DD 30 996 2.00000 5 14 296
2010286N18090 2010 71 NI BB NOT_NAMED 2010-10-15 09:00:00 NR 19.6354 85.6301 main 15 15 ____P_________ -1 19.6354 85.6301 DD 30 995 5 5 270
2010286N18090 2010 71 NI BB NOT_NAMED 2010-10-15 12:00:00 NR 19.5000 85.5000 30 995 newdelhi main 15 10 ____O_________ -1 19.5000 85.5000 DD 30 995 2.00000 5 7 237
2010286N18090 2010 71 NI BB NOT_NAMED 2010-10-15 15:00:00 NR 19.2504 84.9994 main 10 0 ____P_________ -1 19.2504 84.9994 DD 30 995 5 11 242
2010286N18090 2010 71 NI BB NOT_NAMED 2010-10-15 18:00:00 NR 19.0000 84.5000 30 996 newdelhi main 0 0 ____O_________ -1 19.0000 84.5000 DD 30 996 0.00000 5 8 248
2010286N18090 2010 71 NI BB NOT_NAMED 2010-10-15 21:00:00 NR 18.9373 84.1880 main 0 0 ____P_________ -1 18.9373 84.1880 DD 27 997 4 5 270
2010286N18090 2010 71 NI BB NOT_NAMED 2010-10-16 00:00:00 NR 19.0000 84.0000 25 998 newdelhi main 0 ____O_________ -1 19.0000 84.0000 D 25 998 0.00000 4 4 289

IBTrACS Databaseについて

本データベースは、米国NOAAが公開する1842年以降の世界の熱帯低気圧のベストトラックデータアーカイブInternational Best Track Archive for Climate Stewardship (IBTrACS)を、ウェブで閲覧しやすい形式に変換したものです。

最終更新日:2021-11-26